Altena-Hegenscheid Airport


Codes: EDKD/
Name: Altena-Hegenscheid Airport
City: Altena
Country: Germany
Elevation: 1552 ft.

Photos at Altena-Hegenscheid Airport


   Photos courtesy of SpottingLog. You can add your own sightings and photos by signing up for a free trial today.



No photos found.

Weather at Altena-Hegenscheid Airport


Time (UTC)DescriptionTempratureWindCloud coverageVisibilityPressureHumidity
13-Jun-2024 03:00Overcast Clouds6°C4 mph, S90%10000m1018hPa88%
13-Jun-2024 06:00Broken Clouds7°C4 mph, SW79%10000m1019hPa85%
13-Jun-2024 09:00Scattered Clouds11°C4 mph, SW44%10000m1018hPa60%
13-Jun-2024 12:00Scattered Clouds16°C9 mph, SW34%10000m1017hPa41%
13-Jun-2024 15:00Overcast Clouds16°C7 mph, SW95%10000m1016hPa47%
13-Jun-2024 18:00Overcast Clouds14°C4 mph, S98%10000m1015hPa65%
13-Jun-2024 21:00Overcast Clouds11°C4 mph, S100%10000m1014hPa72%
14-Jun-2024 00:00Light Rain10°C4 mph, S100%10000m1013hPa81%
14-Jun-2024 03:00Overcast Clouds9°C4 mph, SE100%10000m1011hPa83%
14-Jun-2024 06:00Light Rain11°C7 mph, S100%10000m1011hPa85%
14-Jun-2024 09:00Light Rain11°C7 mph, S100%10000m1011hPa91%
14-Jun-2024 12:00Overcast Clouds12°C11 mph, S100%10000m1010hPa85%
14-Jun-2024 15:00Overcast Clouds12°C9 mph, S100%10000m1010hPa89%
14-Jun-2024 18:00Overcast Clouds14°C11 mph, S100%10000m1008hPa84%
14-Jun-2024 21:00Overcast Clouds13°C11 mph, S98%10000m1008hPa90%
15-Jun-2024 00:00Light Rain13°C11 mph, S99%10000m1006hPa88%
15-Jun-2024 03:00Overcast Clouds13°C11 mph, S100%10000m1004hPa87%
15-Jun-2024 06:00Moderate Rain11°C11 mph, S100%10000m1005hPa95%
15-Jun-2024 09:00Light Rain12°C16 mph, SW68%10000m1007hPa89%
15-Jun-2024 12:00Light Rain17°C13 mph, SW38%10000m1007hPa43%
15-Jun-2024 15:00Scattered Clouds15°C11 mph, SW49%10000m1008hPa58%
15-Jun-2024 18:00Broken Clouds14°C11 mph, SW75%10000m1009hPa63%
15-Jun-2024 21:00Few Clouds11°C9 mph, S20%10000m1010hPa76%
16-Jun-2024 00:00Few Clouds11°C11 mph, S19%10000m1009hPa79%
16-Jun-2024 03:00Broken Clouds12°C11 mph, S79%10000m1009hPa77%
16-Jun-2024 06:00Overcast Clouds11°C11 mph, S89%10000m1010hPa83%
16-Jun-2024 09:00Light Rain12°C11 mph, SW100%10000m1011hPa93%
16-Jun-2024 12:00Light Rain17°C13 mph, SW81%10000m1011hPa58%
16-Jun-2024 15:00Light Rain18°C13 mph, SW50%10000m1011hPa56%
16-Jun-2024 18:00Light Rain16°C7 mph, SW37%10000m1012hPa77%
16-Jun-2024 21:00Broken Clouds11°C4 mph, S78%10000m1014hPa90%
17-Jun-2024 00:00Broken Clouds10°C7 mph, S78%10000m1014hPa96%
17-Jun-2024 03:00Broken Clouds11°C7 mph, S65%10000m1013hPa93%
17-Jun-2024 06:00Light Rain14°C9 mph, S82%10000m1013hPa82%
17-Jun-2024 09:00Broken Clouds19°C13 mph, SW76%10000m1013hPa60%
17-Jun-2024 12:00Light Rain20°C13 mph, SW87%10000m1013hPa69%
17-Jun-2024 15:00Light Rain18°C9 mph, SW98%10000m1014hPa87%
17-Jun-2024 18:00Moderate Rain15°C4 mph, S99%10000m1015hPa96%
17-Jun-2024 21:00Light Rain14°C4 mph, S100%10000m1015hPa97%
18-Jun-2024 00:00Overcast Clouds13°C4 mph, S100%10000m1015hPa96%